Terminal Aerodrome Forecast
Issued by NWS Duluth, MN

Home | Current Version | Previous Version | Text Only | Print | Product List | Glossary On
Versions: 1 2 3 4 5 6 7 8 9 10 11 12 13 14 15 16 17 18 19 20 21 22 23 24 25 26 27 28 29 30 31 32 33 34 35 36 37 38 39 40
259
FTUS43 KDLH 071145
TAFDLH
TAF
KDLH 071145Z 0712/0812 23012KT 6SM -DZ BKN020 OVC060
      TEMPO 0712/0715 25014G20KT 3SM -DZSN OVC012
     FM071500 25012G20KT 5SM -SN OVC012
     FM071800 27014G22KT 3SM -SN BLSN OVC010
     FM072200 30015G26KT 3SM -SN BLSN OVC014
     FM080200 32016G28KT 5SM -SN BLSN OVC020=

USA.gov is the U.S. government's official web portal to all federal, state and local government web resources and services.